sensor_id;sensor_type;location;lat;lon;timestamp;pressure;altitude;pressure_sealevel;temperature;humidity
53647;BME280;39550;52.230;5.194;2023-05-20T00:01:59;102395.69;;;13.89;66.04
53647;BME280;39550;52.230;5.194;2023-05-20T00:04:24;102417.53;;;14.04;66.29
53647;BME280;39550;52.230;5.194;2023-05-20T00:06:50;102389.56;;;13.87;66.31
53647;BME280;39550;52.230;5.194;2023-05-20T00:09:15;102460.41;;;14.30;67.03
53647;BME280;39550;52.230;5.194;2023-05-20T00:11:45;102413.09;;;13.96;66.52
53647;BME280;39550;52.230;5.194;2023-05-20T00:14:10;102414.91;;;14.01;66.82
53647;BME280;39550;52.230;5.194;2023-05-20T00:16:35;102469.81;;;14.25;66.65
53647;BME280;39550;52.230;5.194;2023-05-20T00:19:01;102468.84;;;14.20;66.34
53647;BME280;39550;52.230;5.194;2023-05-20T00:21:26;102422.56;;;13.94;66.16
53647;BME280;39550;52.230;5.194;2023-05-20T00:23:51;102393.78;;;13.81;66.29
53647;BME280;39550;52.230;5.194;2023-05-20T00:26:17;102412.97;;;13.89;66.78
53647;BME280;39550;52.230;5.194;2023-05-20T00:28:43;102447.81;;;14.06;66.21
53647;BME280;39550;52.230;5.194;2023-05-20T00:31:08;102402.47;;;13.84;66.85
53647;BME280;39550;52.230;5.194;2023-05-20T00:33:35;102406.78;;;13.82;66.39
53647;BME280;39550;52.230;5.194;2023-05-20T00:36:01;102473.13;;;14.18;66.27
53647;BME280;39550;52.230;5.194;2023-05-20T00:38:26;102408.44;;;13.80;66.30
53647;BME280;39550;52.230;5.194;2023-05-20T00:40:51;102444.25;;;14.00;66.19
53647;BME280;39550;52.230;5.194;2023-05-20T00:43:17;102346.41;;;13.42;66.56
53647;BME280;39550;52.230;5.194;2023-05-20T00:45:45;102379.66;;;13.65;66.48
53647;BME280;39550;52.230;5.194;2023-05-20T00:48:10;102420.69;;;13.87;66.73
53647;BME280;39550;52.230;5.194;2023-05-20T00:50:36;102418.09;;;13.87;66.10
53647;BME280;39550;52.230;5.194;2023-05-20T00:53:02;102422.38;;;13.85;66.89
53647;BME280;39550;52.230;5.194;2023-05-20T00:55:27;102405.97;;;13.85;66.45
53647;BME280;39550;52.230;5.194;2023-05-20T00:57:53;102403.25;;;13.80;66.92
53647;BME280;39550;52.230;5.194;2023-05-20T01:00:19;102413.72;;;13.83;66.43
53647;BME280;39550;52.230;5.194;2023-05-20T01:02:44;102311.50;;;13.24;66.80
53647;BME280;39550;52.230;5.194;2023-05-20T01:05:09;102303.72;;;13.24;66.23
53647;BME280;39550;52.230;5.194;2023-05-20T01:07:35;102380.69;;;13.73;66.49
53647;BME280;39550;52.230;5.194;2023-05-20T01:10:01;102347.50;;;13.53;66.58
53647;BME280;39550;52.230;5.194;2023-05-20T01:12:30;102419.09;;;13.94;67.24
53647;BME280;39550;52.230;5.194;2023-05-20T01:15:07;102414.69;;;13.90;67.07
53647;BME280;39550;52.230;5.194;2023-05-20T01:17:36;102417.25;;;13.88;66.91
53647;BME280;39550;52.230;5.194;2023-05-20T01:20:03;102386.66;;;13.69;66.53
53647;BME280;39550;52.230;5.194;2023-05-20T01:22:30;102417.19;;;13.85;66.47
53647;BME280;39550;52.230;5.194;2023-05-20T01:24:55;102414.63;;;13.87;66.59
53647;BME280;39550;52.230;5.194;2023-05-20T01:27:21;102412.91;;;13.87;66.72
53647;BME280;39550;52.230;5.194;2023-05-20T01:29:49;102292.34;;;13.16;66.18
53647;BME280;39550;52.230;5.194;2023-05-20T01:32:36;102398.97;;;13.81;66.40
53647;BME280;39550;52.230;5.194;2023-05-20T01:35:03;102397.25;;;13.81;66.63
53647;BME280;39550;52.230;5.194;2023-05-20T01:37:30;102354.44;;;13.54;66.78
53647;BME280;39550;52.230;5.194;2023-05-20T01:39:56;102413.88;;;13.92;66.86
53647;BME280;39550;52.230;5.194;2023-05-20T01:42:25;102364.88;;;13.59;66.61
53647;BME280;39550;52.230;5.194;2023-05-20T01:44:51;102371.81;;;13.61;66.88
53647;BME280;39550;52.230;5.194;2023-05-20T01:47:16;102392.84;;;13.77;67.07
53647;BME280;39550;52.230;5.194;2023-05-20T01:49:42;102398.91;;;13.77;67.15
53647;BME280;39550;52.230;5.194;2023-05-20T01:52:07;102296.69;;;13.17;67.07
53647;BME280;39550;52.230;5.194;2023-05-20T01:54:33;102271.38;;;13.04;66.69
53647;BME280;39550;52.230;5.194;2023-05-20T01:56:58;102370.06;;;13.60;66.73
53647;BME280;39550;52.230;5.194;2023-05-20T01:59:23;102386.69;;;13.72;66.65
53647;BME280;39550;52.230;5.194;2023-05-20T02:01:49;102415.44;;;13.84;66.71
53647;BME280;39550;52.230;5.194;2023-05-20T02:04:14;102401.47;;;13.76;66.73
53647;BME280;39550;52.230;5.194;2023-05-20T02:06:40;102416.34;;;13.85;67.00
53647;BME280;39550;52.230;5.194;2023-05-20T02:09:05;102367.34;;;13.53;67.34
53647;BME280;39550;52.230;5.194;2023-05-20T02:11:31;102335.00;;;13.34;66.85
53647;BME280;39550;52.230;5.194;2023-05-20T02:13:57;102276.44;;;12.98;66.94
53647;BME280;39550;52.230;5.194;2023-05-20T02:16:22;102412.78;;;13.79;66.75
53647;BME280;39550;52.230;5.194;2023-05-20T02:18:47;102328.00;;;13.29;67.06
53647;BME280;39550;52.230;5.194;2023-05-20T02:21:15;102413.56;;;13.77;66.79
53647;BME280;39550;52.230;5.194;2023-05-20T02:23:40;102360.28;;;13.45;67.08
53647;BME280;39550;52.230;5.194;2023-05-20T02:26:06;102366.41;;;13.49;66.84
53647;BME280;39550;52.230;5.194;2023-05-20T02:28:31;102348.88;;;13.37;66.76
53647;BME280;39550;52.230;5.194;2023-05-20T02:30:57;102354.13;;;13.39;67.05
53647;BME280;39550;52.230;5.194;2023-05-20T02:33:22;102360.28;;;13.45;67.34
53647;BME280;39550;52.230;5.194;2023-05-20T02:35:48;102338.34;;;13.29;67.12
53647;BME280;39550;52.230;5.194;2023-05-20T02:38:14;102273.72;;;12.91;67.02
53647;BME280;39550;52.230;5.194;2023-05-20T02:40:43;102401.34;;;13.70;66.94
53647;BME280;39550;52.230;5.194;2023-05-20T02:43:08;102303.41;;;13.09;66.86
53647;BME280;39550;52.230;5.194;2023-05-20T02:45:34;102389.03;;;13.59;67.42
53647;BME280;39550;52.230;5.194;2023-05-20T02:47:59;102398.72;;;13.68;67.20
53647;BME280;39550;52.230;5.194;2023-05-20T02:50:24;102330.47;;;13.25;67.01
53647;BME280;39550;52.230;5.194;2023-05-20T02:52:50;102353.25;;;13.40;66.85
53647;BME280;39550;52.230;5.194;2023-05-20T02:55:15;102381.19;;;13.55;67.12
53647;BME280;39550;52.230;5.194;2023-05-20T02:57:40;102390.84;;;13.63;67.19
53647;BME280;39550;52.230;5.194;2023-05-20T03:00:07;102337.63;;;13.35;66.94
53647;BME280;39550;52.230;5.194;2023-05-20T03:02:36;102347.09;;;13.35;66.90
53647;BME280;39550;52.230;5.194;2023-05-20T03:05:01;102345.34;;;13.34;67.26
53647;BME280;39550;52.230;5.194;2023-05-20T03:07:29;102389.00;;;13.56;66.99
53647;BME280;39550;52.230;5.194;2023-05-20T03:09:56;102333.03;;;13.23;67.12
53647;BME280;39550;52.230;5.194;2023-05-20T03:12:23;102344.41;;;13.30;66.78
53647;BME280;39550;52.230;5.194;2023-05-20T03:14:50;102338.22;;;13.23;67.18
53647;BME280;39550;52.230;5.194;2023-05-20T03:17:19;102353.09;;;13.32;66.75
53647;BME280;39550;52.230;5.194;2023-05-20T03:19:44;102369.72;;;13.42;67.07
53647;BME280;39550;52.230;5.194;2023-05-20T03:22:10;102372.28;;;13.40;67.13
53647;BME280;39550;52.230;5.194;2023-05-20T03:24:35;102294.53;;;12.96;67.02
53647;BME280;39550;52.230;5.194;2023-05-20T03:27:01;102346.91;;;13.25;67.12
53647;BME280;39550;52.230;5.194;2023-05-20T03:29:26;102380.03;;;13.40;67.07
53647;BME280;39550;52.230;5.194;2023-05-20T03:31:51;102319.75;;;13.06;67.02
53647;BME280;39550;52.230;5.194;2023-05-20T03:34:17;102311.88;;;13.00;66.95
53647;BME280;39550;52.230;5.194;2023-05-20T03:36:42;102400.16;;;13.54;67.25
53647;BME280;39550;52.230;5.194;2023-05-20T03:39:07;102394.84;;;13.48;67.03
53647;BME280;39550;52.230;5.194;2023-05-20T03:41:33;102366.06;;;13.34;66.99
53647;BME280;39550;52.230;5.194;2023-05-20T03:43:59;102396.56;;;13.47;67.38
53647;BME280;39550;52.230;5.194;2023-05-20T03:46:24;102313.50;;;12.97;67.19
53647;BME280;39550;52.230;5.194;2023-05-20T03:48:49;102400.06;;;13.49;66.85
53647;BME280;39550;52.230;5.194;2023-05-20T03:51:15;102346.63;;;13.13;67.52
53647;BME280;39550;52.230;5.194;2023-05-20T03:53:40;102345.88;;;13.17;67.03
53647;BME280;39550;52.230;5.194;2023-05-20T03:56:05;102397.44;;;13.46;66.75
53647;BME280;39550;52.230;5.194;2023-05-20T03:58:32;102402.59;;;13.46;67.55
53647;BME280;39550;52.230;5.194;2023-05-20T04:00:57;102348.41;;;13.14;67.31
53647;BME280;39550;52.230;5.194;2023-05-20T04:03:23;102343.13;;;13.11;67.05
53647;BME280;39550;52.230;5.194;2023-05-20T04:05:49;102394.81;;;13.44;67.61
53647;BME280;39550;52.230;5.194;2023-05-20T04:08:14;102399.09;;;13.44;67.08
53647;BME280;39550;52.230;5.194;2023-05-20T04:10:40;102334.50;;;13.10;66.91
53647;BME280;39550;52.230;5.194;2023-05-20T04:13:09;102381.75;;;13.40;66.62
53647;BME280;39550;52.230;5.194;2023-05-20T04:15:35;102391.25;;;13.41;67.12
53647;BME280;39550;52.230;5.194;2023-05-20T04:18:01;102388.69;;;13.41;67.30
53647;BME280;39550;52.230;5.194;2023-05-20T04:20:26;102393.00;;;13.40;67.30
53647;BME280;39550;52.230;5.194;2023-05-20T04:22:51;102323.91;;;13.00;66.91
53647;BME280;39550;52.230;5.194;2023-05-20T04:25:18;102328.34;;;13.05;66.73
53647;BME280;39550;52.230;5.194;2023-05-20T04:27:43;102381.53;;;13.31;67.32
53647;BME280;39550;52.230;5.194;2023-05-20T04:30:09;102323.94;;;13.01;67.20
53647;BME280;39550;52.230;5.194;2023-05-20T04:32:35;102402.47;;;13.40;67.62
53647;BME280;39550;52.230;5.194;2023-05-20T04:35:00;102365.81;;;13.23;67.33
53647;BME280;39550;52.230;5.194;2023-05-20T04:37:27;102382.41;;;13.31;66.86
53647;BME280;39550;52.230;5.194;2023-05-20T04:39:52;102393.78;;;13.38;66.96
53647;BME280;39550;52.230;5.194;2023-05-20T04:42:18;102358.75;;;13.14;67.19
53647;BME280;39550;52.230;5.194;2023-05-20T04:44:45;102398.78;;;13.32;66.65
53647;BME280;39550;52.230;5.194;2023-05-20T04:47:12;102316.84;;;12.91;66.73
53647;BME280;39550;52.230;5.194;2023-05-20T04:49:38;102353.34;;;13.05;66.47
53647;BME280;39550;52.230;5.194;2023-05-20T04:52:03;102390.13;;;13.29;67.67
53647;BME280;39550;52.230;5.194;2023-05-20T04:54:29;102369.09;;;13.14;66.53
53647;BME280;39550;52.230;5.194;2023-05-20T04:56:55;102374.28;;;13.14;66.72
53647;BME280;39550;52.230;5.194;2023-05-20T04:59:21;102327.00;;;12.83;67.08
53647;BME280;39550;52.230;5.194;2023-05-20T05:01:46;102257.19;;;12.45;66.33
53647;BME280;39550;52.230;5.194;2023-05-20T05:04:12;102274.72;;;12.58;66.60
53647;BME280;39550;52.230;5.194;2023-05-20T05:06:37;102277.41;;;12.63;66.70
53647;BME280;39550;52.230;5.194;2023-05-20T05:09:02;102392.69;;;13.28;66.67
53647;BME280;39550;52.230;5.194;2023-05-20T05:11:29;102347.34;;;13.06;66.67
53647;BME280;39550;52.230;5.194;2023-05-20T05:13:54;102392.78;;;13.33;66.79
53647;BME280;39550;52.230;5.194;2023-05-20T05:16:20;102392.03;;;13.37;66.34
53647;BME280;39550;52.230;5.194;2023-05-20T05:18:45;102314.22;;;12.89;66.78
53647;BME280;39550;52.230;5.194;2023-05-20T05:21:11;102353.47;;;13.11;66.81
53647;BME280;39550;52.230;5.194;2023-05-20T05:23:38;102343.31;;;13.19;66.55
53647;BME280;39550;52.230;5.194;2023-05-20T05:26:04;102365.91;;;13.27;66.10
53647;BME280;39550;52.230;5.194;2023-05-20T05:28:29;102339.84;;;13.18;66.42
53647;BME280;39550;52.230;5.194;2023-05-20T05:30:55;102346.00;;;13.25;65.94
53647;BME280;39550;52.230;5.194;2023-05-20T05:33:21;102378.50;;;13.49;65.69
53647;BME280;39550;52.230;5.194;2023-05-20T05:35:47;102377.56;;;13.47;65.92
53647;BME280;39550;52.230;5.194;2023-05-20T05:38:12;102346.97;;;13.28;65.81
53647;BME280;39550;52.230;5.194;2023-05-20T05:40:37;102377.53;;;13.45;66.07
53647;BME280;39550;52.230;5.194;2023-05-20T05:43:03;102360.94;;;13.35;65.58
53647;BME280;39550;52.230;5.194;2023-05-20T05:45:28;102347.88;;;13.31;66.18
53647;BME280;39550;52.230;5.194;2023-05-20T05:47:53;102339.00;;;13.19;66.19
53647;BME280;39550;52.230;5.194;2023-05-20T05:50:19;102343.47;;;13.26;66.13
53647;BME280;39550;52.230;5.194;2023-05-20T05:52:44;102310.25;;;13.07;66.63
53647;BME280;39550;52.230;5.194;2023-05-20T05:55:10;102229.91;;;12.59;66.17
53647;BME280;39550;52.230;5.194;2023-05-20T05:57:36;102243.84;;;12.65;65.90
53647;BME280;39550;52.230;5.194;2023-05-20T06:00:02;102338.97;;;13.18;65.93
53647;BME280;39550;52.230;5.194;2023-05-20T06:02:29;102282.41;;;12.93;65.87
53647;BME280;39550;52.230;5.194;2023-05-20T06:05:03;102322.47;;;13.13;65.58
53647;BME280;39550;52.230;5.194;2023-05-20T06:07:28;102219.47;;;12.53;66.37
53647;BME280;39550;52.230;5.194;2023-05-20T06:09:53;102255.16;;;12.70;66.39
53647;BME280;39550;52.230;5.194;2023-05-20T06:12:19;102355.56;;;13.27;65.89
53647;BME280;39550;52.230;5.194;2023-05-20T06:14:44;102346.06;;;13.26;66.06
53647;BME280;39550;52.230;5.194;2023-05-20T06:17:10;102348.66;;;13.26;66.07
53647;BME280;39550;52.230;5.194;2023-05-20T06:19:35;102378.31;;;13.41;66.77
53647;BME280;39550;52.230;5.194;2023-05-20T06:22:00;102366.00;;;13.31;65.99
53647;BME280;39550;52.230;5.194;2023-05-20T06:24:26;102380.06;;;13.42;66.05
53647;BME280;39550;52.230;5.194;2023-05-20T06:26:51;102326.66;;;13.06;66.33
53647;BME280;39550;52.230;5.194;2023-05-20T06:29:16;102351.13;;;13.22;66.25
53647;BME280;39550;52.230;5.194;2023-05-20T06:31:42;102334.59;;;13.15;66.19
53647;BME280;39550;52.230;5.194;2023-05-20T06:34:07;102348.56;;;13.23;66.14
53647;BME280;39550;52.230;5.194;2023-05-20T06:36:32;102315.31;;;13.01;66.22
53647;BME280;39550;52.230;5.194;2023-05-20T06:38:58;102350.31;;;13.24;65.96
53647;BME280;39550;52.230;5.194;2023-05-20T06:41:23;102339.75;;;13.15;66.58
53647;BME280;39550;52.230;5.194;2023-05-20T06:43:49;102383.56;;;13.44;66.21
53647;BME280;39550;52.230;5.194;2023-05-20T06:46:14;102319.00;;;13.12;66.02
53647;BME280;39550;52.230;5.194;2023-05-20T06:48:39;102287.63;;;12.97;65.88
53647;BME280;39550;52.230;5.194;2023-05-20T06:51:08;102271.91;;;12.87;66.08
53647;BME280;39550;52.230;5.194;2023-05-20T06:53:34;102338.34;;;13.29;66.06
53647;BME280;39550;52.230;5.194;2023-05-20T06:56:00;102287.72;;;13.01;66.00
53647;BME280;39550;52.230;5.194;2023-05-20T06:58:26;102283.41;;;13.00;66.47
53647;BME280;39550;52.230;5.194;2023-05-20T07:00:51;102317.34;;;13.14;65.96
53647;BME280;39550;52.230;5.194;2023-05-20T07:03:17;102300.03;;;13.11;65.75
53647;BME280;39550;52.230;5.194;2023-05-20T07:05:50;102334.03;;;13.30;66.17
53647;BME280;39550;52.230;5.194;2023-05-20T07:08:15;102288.78;;;13.11;66.40
53647;BME280;39550;52.230;5.194;2023-05-20T07:10:41;102302.69;;;13.16;65.85
53647;BME280;39550;52.230;5.194;2023-05-20T07:13:06;102303.66;;;13.21;65.71
53647;BME280;39550;52.230;5.194;2023-05-20T07:15:31;102245.84;;;12.78;66.23
53647;BME280;39550;52.230;5.194;2023-05-20T07:17:57;102330.72;;;13.36;66.33
53647;BME280;39550;52.230;5.194;2023-05-20T07:20:23;102274.03;;;13.07;66.46
53647;BME280;39550;52.230;5.194;2023-05-20T07:22:48;102295.88;;;13.20;66.12
53647;BME280;39550;52.230;5.194;2023-05-20T07:25:15;102345.78;;;13.55;66.29
53647;BME280;39550;52.230;5.194;2023-05-20T07:27:40;102275.13;;;13.18;66.11
53647;BME280;39550;52.230;5.194;2023-05-20T07:30:06;102289.94;;;13.25;66.11
53647;BME280;39550;52.230;5.194;2023-05-20T07:32:32;102328.44;;;13.51;66.07
53647;BME280;39550;52.230;5.194;2023-05-20T07:34:58;102270.84;;;13.20;66.64
53647;BME280;39550;52.230;5.194;2023-05-20T07:37:26;102334.66;;;13.59;66.08
53647;BME280;39550;52.230;5.194;2023-05-20T07:39:51;102332.94;;;13.60;66.79
53647;BME280;39550;52.230;5.194;2023-05-20T07:42:16;102278.78;;;13.28;66.06
53647;BME280;39550;52.230;5.194;2023-05-20T07:44:42;102218.59;;;12.95;66.10
53647;BME280;39550;52.230;5.194;2023-05-20T07:47:08;102204.81;;;12.97;66.47
53647;BME280;39550;52.230;5.194;2023-05-20T07:49:33;102236.31;;;13.18;65.80
53647;BME280;39550;52.230;5.194;2023-05-20T07:51:58;102182.22;;;12.86;66.16
53647;BME280;39550;52.230;5.194;2023-05-20T07:54:23;102300.03;;;13.54;66.17
53647;BME280;39550;52.230;5.194;2023-05-20T07:56:49;102300.97;;;13.59;66.53
53647;BME280;39550;52.230;5.194;2023-05-20T07:59:14;102322.00;;;13.75;66.15
53647;BME280;39550;52.230;5.194;2023-05-20T08:01:40;102250.47;;;13.36;66.30
53647;BME280;39550;52.230;5.194;2023-05-20T08:04:06;102321.22;;;13.79;66.38
53647;BME280;39550;52.230;5.194;2023-05-20T08:06:31;102315.09;;;13.75;66.08
53647;BME280;39550;52.230;5.194;2023-05-20T08:08:57;102233.09;;;13.32;66.31
53647;BME280;39550;52.230;5.194;2023-05-20T08:11:26;102266.34;;;13.53;66.41
53647;BME280;39550;52.230;5.194;2023-05-20T08:13:52;102166.97;;;13.02;66.80
53647;BME280;39550;52.230;5.194;2023-05-20T08:16:23;102222.81;;;13.35;66.88
53647;BME280;39550;52.230;5.194;2023-05-20T08:18:48;102171.34;;;13.04;66.60
53647;BME280;39550;52.230;5.194;2023-05-20T08:21:14;102313.59;;;13.88;66.34
53647;BME280;39550;52.230;5.194;2023-05-20T08:23:39;102309.34;;;13.92;66.40
53647;BME280;39550;52.230;5.194;2023-05-20T08:26:05;102153.25;;;13.06;66.27
53647;BME280;39550;52.230;5.194;2023-05-20T08:28:30;102240.59;;;13.62;65.98
53647;BME280;39550;52.230;5.194;2023-05-20T08:30:56;102254.56;;;13.72;65.63
53647;BME280;39550;52.230;5.194;2023-05-20T08:33:24;102229.31;;;13.58;66.49
53647;BME280;39550;52.230;5.194;2023-05-20T08:35:50;102263.34;;;13.80;66.24
53647;BME280;39550;52.230;5.194;2023-05-20T08:38:15;102279.13;;;13.92;66.07
53647;BME280;39550;52.230;5.194;2023-05-20T08:40:40;102302.72;;;14.09;65.77
53647;BME280;39550;52.230;5.194;2023-05-20T08:43:06;102254.78;;;13.84;65.97
53647;BME280;39550;52.230;5.194;2023-05-20T08:45:33;102283.78;;;14.13;65.52
53647;BME280;39550;52.230;5.194;2023-05-20T08:47:59;102129.31;;;13.19;65.79
53647;BME280;39550;52.230;5.194;2023-05-20T08:50:25;102262.81;;;14.00;65.65
53647;BME280;39550;52.230;5.194;2023-05-20T08:52:51;102137.19;;;13.24;65.31
53647;BME280;39550;52.230;5.194;2023-05-20T08:55:23;102247.22;;;13.96;65.50
53647;BME280;39550;52.230;5.194;2023-05-20T08:57:49;102195.69;;;13.61;65.09
53647;BME280;39550;52.230;5.194;2023-05-20T09:00:15;102148.81;;;13.46;65.09
53647;BME280;39550;52.230;5.194;2023-05-20T09:02:44;102253.63;;;14.19;64.76
53647;BME280;39550;52.230;5.194;2023-05-20T09:05:10;102135.00;;;13.47;64.95
53647;BME280;39550;52.230;5.194;2023-05-20T09:07:36;102257.19;;;14.25;65.05
53647;BME280;39550;52.230;5.194;2023-05-20T09:10:02;102225.81;;;14.07;65.29
53647;BME280;39550;52.230;5.194;2023-05-20T09:12:27;102249.38;;;14.22;65.24
53647;BME280;39550;52.230;5.194;2023-05-20T09:14:52;102145.66;;;13.62;64.94
53647;BME280;39550;52.230;5.194;2023-05-20T09:17:20;102203.31;;;14.06;62.96
53647;BME280;39550;52.230;5.194;2023-05-20T09:19:48;102210.28;;;14.10;64.68
53647;BME280;39550;52.230;5.194;2023-05-20T09:22:14;102184.97;;;13.93;63.89
53647;BME280;39550;52.230;5.194;2023-05-20T09:24:39;102212.97;;;14.16;63.94
53647;BME280;39550;52.230;5.194;2023-05-20T09:27:05;102148.44;;;13.76;63.94
53647;BME280;39550;52.230;5.194;2023-05-20T09:29:32;102226.06;;;14.25;64.07
53647;BME280;39550;52.230;5.194;2023-05-20T09:32:00;102212.25;;;14.26;64.26
53647;BME280;39550;52.230;5.194;2023-05-20T09:34:26;102196.72;;;14.26;63.16
53647;BME280;39550;52.230;5.194;2023-05-20T09:36:53;102100.88;;;13.71;64.16
53647;BME280;39550;52.230;5.194;2023-05-20T09:39:24;102156.69;;;14.07;64.04
53647;BME280;39550;52.230;5.194;2023-05-20T09:41:59;102207.25;;;14.39;63.32
53647;BME280;39550;52.230;5.194;2023-05-20T09:44:27;102160.19;;;14.11;62.76
53647;BME280;39550;52.230;5.194;2023-05-20T09:46:53;102184.59;;;14.25;62.89
53647;BME280;39550;52.230;5.194;2023-05-20T09:49:21;102191.63;;;14.36;62.75
53647;BME280;39550;52.230;5.194;2023-05-20T09:51:48;102219.59;;;14.55;63.03
53647;BME280;39550;52.230;5.194;2023-05-20T09:54:14;102218.72;;;14.58;63.15
53647;BME280;39550;52.230;5.194;2023-05-20T09:56:41;102095.88;;;13.85;62.25
53647;BME280;39550;52.230;5.194;2023-05-20T09:59:09;102150.81;;;14.21;62.83
53647;BME280;39550;52.230;5.194;2023-05-20T10:01:35;102228.47;;;14.73;62.67
53647;BME280;39550;52.230;5.194;2023-05-20T10:04:01;102233.63;;;14.68;62.05
53647;BME280;39550;52.230;5.194;2023-05-20T10:12:28;102205.88;;;14.62;61.94
53647;BME280;39550;52.230;5.194;2023-05-20T10:15:18;102203.44;;;14.76;62.08
53647;BME280;39550;52.230;5.194;2023-05-20T10:20:45;102205.25;;;14.84;61.95
53647;BME280;39550;52.230;5.194;2023-05-20T10:23:20;102188.69;;;14.72;61.43
53647;BME280;39550;52.230;5.194;2023-05-20T10:25:55;102195.81;;;14.87;62.01
53647;BME280;39550;52.230;5.194;2023-05-20T10:28:30;102169.72;;;14.78;62.54
53647;BME280;39550;52.230;5.194;2023-05-20T10:30:57;102152.31;;;14.68;62.03
53647;BME280;39550;52.230;5.194;2023-05-20T10:33:25;102187.19;;;14.91;62.20
53647;BME280;39550;52.230;5.194;2023-05-20T10:35:51;102190.66;;;14.93;62.14
53647;BME280;39550;52.230;5.194;2023-05-20T10:38:17;102190.69;;;14.96;61.77
53647;BME280;39550;52.230;5.194;2023-05-20T10:40:44;102177.69;;;14.95;61.53
53647;BME280;39550;52.230;5.194;2023-05-20T10:43:14;102167.34;;;14.98;62.13
53647;BME280;39550;52.230;5.194;2023-05-20T10:45:51;102176.94;;;15.04;61.54
53647;BME280;39550;52.230;5.194;2023-05-20T10:48:30;102176.06;;;15.05;61.07
53647;BME280;39550;52.230;5.194;2023-05-20T10:50:57;102155.28;;;15.00;60.22
53647;BME280;39550;52.230;5.194;2023-05-20T10:53:25;102165.69;;;15.05;59.99
53647;BME280;39550;52.230;5.194;2023-05-20T10:55:52;102168.28;;;15.03;60.55
53647;BME280;39550;52.230;5.194;2023-05-20T10:58:20;102171.81;;;15.11;60.42
53647;BME280;39550;52.230;5.194;2023-05-20T11:00:47;102098.69;;;14.67;60.83
53647;BME280;39550;52.230;5.194;2023-05-20T11:03:15;102114.41;;;14.79;60.42
53647;BME280;39550;52.230;5.194;2023-05-20T11:05:41;102138.88;;;15.06;59.28
53647;BME280;39550;52.230;5.194;2023-05-20T11:08:07;102093.69;;;14.88;60.14
53647;BME280;39550;52.230;5.194;2023-05-20T11:10:34;102093.69;;;14.85;59.33
53647;BME280;39550;52.230;5.194;2023-05-20T11:13:01;102069.34;;;14.74;59.82
53647;BME280;39550;52.230;5.194;2023-05-20T11:15:27;102118.13;;;15.06;60.51
53647;BME280;39550;52.230;5.194;2023-05-20T11:17:56;102147.75;;;15.26;59.48
53647;BME280;39550;52.230;5.194;2023-05-20T11:20:22;102079.78;;;14.80;59.06
53647;BME280;39550;52.230;5.194;2023-05-20T11:22:52;102152.97;;;15.32;59.58
53647;BME280;39550;52.230;5.194;2023-05-20T11:25:18;102148.72;;;15.39;58.51
53647;BME280;39550;52.230;5.194;2023-05-20T11:27:44;102142.66;;;15.39;58.49
53647;BME280;39550;52.230;5.194;2023-05-20T11:30:12;102142.56;;;15.29;58.87
53647;BME280;39550;52.230;5.194;2023-05-20T11:32:40;102137.44;;;15.36;60.46
53647;BME280;39550;52.230;5.194;2023-05-20T11:35:06;102112.19;;;15.18;58.90
53647;BME280;39550;52.230;5.194;2023-05-20T11:37:35;102148.72;;;15.39;59.26
53647;BME280;39550;52.230;5.194;2023-05-20T11:40:04;102128.78;;;15.37;59.17
53647;BME280;39550;52.230;5.194;2023-05-20T11:42:35;102142.75;;;15.48;58.67
53647;BME280;39550;52.230;5.194;2023-05-20T11:45:00;102117.53;;;15.36;57.07
53647;BME280;39550;52.230;5.194;2023-05-20T11:47:26;102126.28;;;15.49;58.55
53647;BME280;39550;52.230;5.194;2023-05-20T11:49:51;102136.72;;;15.54;58.38
53647;BME280;39550;52.230;5.194;2023-05-20T11:52:17;102132.41;;;15.59;57.71
53647;BME280;39550;52.230;5.194;2023-05-20T11:54:42;102090.78;;;15.48;58.17
53647;BME280;39550;52.230;5.194;2023-05-20T11:57:10;102120.34;;;15.69;59.33
53647;BME280;39550;52.230;5.194;2023-05-20T11:59:35;102062.94;;;15.30;57.88
53647;BME280;39550;52.230;5.194;2023-05-20T12:02:00;102114.31;;;15.73;59.28
53647;BME280;39550;52.230;5.194;2023-05-20T12:04:26;102092.50;;;15.49;59.58
53647;BME280;39550;52.230;5.194;2023-05-20T12:06:51;102096.09;;;15.66;58.55
53647;BME280;39550;52.230;5.194;2023-05-20T12:09:17;102091.81;;;15.70;58.78
53647;BME280;39550;52.230;5.194;2023-05-20T12:11:42;102105.78;;;15.80;58.14
53647;BME280;39550;52.230;5.194;2023-05-20T12:14:09;102099.75;;;15.87;58.60
53647;BME280;39550;52.230;5.194;2023-05-20T12:16:35;102103.19;;;15.83;59.72
53647;BME280;39550;52.230;5.194;2023-05-20T12:19:04;102007.59;;;15.39;58.75
53647;BME280;39550;52.230;5.194;2023-05-20T12:21:30;102024.19;;;15.61;59.12
53647;BME280;39550;52.230;5.194;2023-05-20T12:23:56;102080.75;;;16.00;58.91
53647;BME280;39550;52.230;5.194;2023-05-20T12:26:26;102105.03;;;16.03;57.52
53647;BME280;39550;52.230;5.194;2023-05-20T12:28:53;102095.53;;;16.15;56.69
53647;BME280;39550;52.230;5.194;2023-05-20T12:31:20;102064.38;;;16.19;57.44
53647;BME280;39550;52.230;5.194;2023-05-20T12:33:45;102066.97;;;16.20;57.28
53647;BME280;39550;52.230;5.194;2023-05-20T12:36:11;102026.13;;;15.99;55.86
53647;BME280;39550;52.230;5.194;2023-05-20T12:38:37;101986.13;;;15.69;56.58
53647;BME280;39550;52.230;5.194;2023-05-20T12:41:03;102046.16;;;16.20;56.83
53647;BME280;39550;52.230;5.194;2023-05-20T12:43:28;102066.13;;;16.30;57.49
53647;BME280;39550;52.230;5.194;2023-05-20T12:45:54;102062.56;;;16.07;57.16
53647;BME280;39550;52.230;5.194;2023-05-20T12:48:20;102060.97;;;16.37;57.66
53647;BME280;39550;52.230;5.194;2023-05-20T12:50:45;102049.53;;;15.99;58.44
53647;BME280;39550;52.230;5.194;2023-05-20T12:53:10;102025.19;;;15.80;58.42
53647;BME280;39550;52.230;5.194;2023-05-20T12:55:36;102074.84;;;16.39;56.62